Time;durP1;ratioP1;P1;durP2;ratioP2;P2;SDS_P1;SDS_P2;PMS_P1;PMS_P2;Temp;Humidity;BMP_temperature;BMP_pressure;BME280_temperature;BME280_humidity;BME280_pressure;Samples;Min_cycle;Max_cycle;Signal;HPM_P1;HPM_P2
2021/03/28 00:01:30;;;;;;;11.98;4.85;;;;;;;7.49;63.75;101056.72;5131389;28;20035;-63
2021/03/28 00:04:01;;;;;;;11.43;4.50;;;;;;;7.48;63.55;101053.25;5130354;28;20051;-63
2021/03/28 00:06:36;;;;;;;13.45;5.18;;;;;;;7.48;63.14;101045.53;5130891;28;20035;-63
2021/03/28 00:09:27;;;;;;;8.85;3.65;;;;;;;7.49;63.52;101044.72;5130664;28;20478;-63
2021/03/28 00:12:22;;;;;;;11.98;4.55;;;;;;;7.49;63.18;101049.88;5112329;28;20035;-63
2021/03/28 00:14:55;;;;;;;8.07;5.13;;;;;;;7.51;63.75;101048.25;5130568;28;20035;-62
2021/03/28 00:17:22;;;;;;;9.68;4.45;;;;;;;7.53;63.68;101050.88;5116299;28;20036;-63
2021/03/28 00:20:12;;;;;;;7.70;3.88;;;;;;;7.54;63.01;101050.06;5116810;28;20096;-63
2021/03/28 00:22:55;;;;;;;8.07;3.38;;;;;;;7.55;63.48;101051.84;5117107;28;20047;-63
2021/03/28 00:25:36;;;;;;;10.93;4.32;;;;;;;7.54;63.24;101050.97;5098538;28;20032;-63
2021/03/28 00:28:21;;;;;;;8.15;4.13;;;;;;;7.56;63.35;101054.47;5117253;28;20080;-63
2021/03/28 00:30:50;;;;;;;7.53;4.13;;;;;;;7.56;63.63;101054.47;5097861;28;20039;-62
2021/03/28 00:33:24;;;;;;;14.38;4.75;;;;;;;7.55;63.30;101057.88;5098012;28;20031;-62
2021/03/28 00:35:50;;;;;;;9.15;3.92;;;;;;;7.55;63.63;101050.13;5081646;28;20044;-63
2021/03/28 00:38:43;;;;;;;11.52;3.70;;;;;;;7.52;63.40;101049.13;5098535;28;20034;-62
2021/03/28 00:41:13;;;;;;;8.65;3.78;;;;;;;7.51;63.08;101045.66;5098694;28;20039;-63
2021/03/28 00:43:53;;;;;;;9.57;3.95;;;;;;;7.49;63.46;101042.13;5116428;28;20106;-63
2021/03/28 00:46:42;;;;;;;11.65;3.92;;;;;;;7.47;63.15;101041.19;5097827;28;20507;-63
2021/03/28 00:49:27;;;;;;;8.43;3.25;;;;;;;7.46;63.57;101040.31;5116570;28;20031;-64
2021/03/28 00:51:57;;;;;;;13.23;4.05;;;;;;;7.46;63.13;101031.69;5116069;28;20058;-64
2021/03/28 00:54:46;;;;;;;14.52;4.03;;;;;;;7.46;63.27;101026.50;5097805;28;20032;-64
2021/03/28 00:57:31;;;;;;;10.07;4.25;;;;;;;7.43;63.41;101026.38;5097713;28;20039;-62
2021/03/28 01:00:38;;;;;;;10.60;4.22;;;;;;;7.42;63.67;101033.25;5116384;28;20035;-62
2021/03/28 01:03:30;;;;;;;9.13;3.65;;;;;;;7.43;63.20;101031.53;5065709;28;20054;-63
2021/03/28 01:06:01;;;;;;;14.15;4.07;;;;;;;7.42;63.60;101025.50;5116181;28;20055;-63
2021/03/28 01:08:41;;;;;;;12.60;4.32;;;;;;;7.41;63.46;101026.31;5116019;28;20031;-63
2021/03/28 01:11:15;;;;;;;10.50;3.92;;;;;;;7.42;63.49;101017.78;5115801;28;20041;-63
2021/03/28 01:13:59;;;;;;;8.27;3.92;;;;;;;7.39;63.33;101020.22;5097661;28;20092;-63
2021/03/28 01:16:34;;;;;;;11.23;4.35;;;;;;;7.37;63.24;101008.94;5116509;28;20035;-62
2021/03/28 01:19:24;;;;;;;8.70;4.00;;;;;;;7.37;63.80;101014.09;5097177;28;20036;-63
2021/03/28 01:22:16;;;;;;;5.53;3.42;;;;;;;7.31;63.25;101004.38;5097107;28;20383;-63
2021/03/28 01:24:51;;;;;;;9.48;4.45;;;;;;;7.31;63.74;101006.97;5097157;28;20478;-62
2021/03/28 01:27:28;;;;;;;8.13;3.97;;;;;;;7.29;63.57;101006.00;5114886;28;20028;-62
2021/03/28 01:29:53;;;;;;;;;;;;;;;7.28;63.06;101011.97;5115976;28;20043;-62
2021/03/28 01:32:31;;;;;;;14.30;4.55;;;;;;;7.28;63.61;101004.25;5115425;28;19912;-62
2021/03/28 01:35:11;;;;;;;11.35;4.30;;;;;;;7.28;63.52;100996.50;5116186;28;20044;-62
2021/03/28 01:38:01;;;;;;;12.50;4.25;;;;;;;7.29;63.45;100994.84;5097357;28;20027;-62
2021/03/28 01:40:52;;;;;;;11.98;4.05;;;;;;;7.29;63.23;100984.50;5114892;28;20509;-63
2021/03/28 01:43:48;;;;;;;9.80;4.25;;;;;;;7.28;63.44;100991.34;5079737;28;20486;-62
2021/03/28 01:46:29;;;;;;;13.10;5.00;;;;;;;7.28;63.74;100983.63;5097266;28;20051;-63
2021/03/28 01:49:02;;;;;;;12.57;4.70;;;;;;;7.29;63.81;100987.97;5115566;28;20032;-62
2021/03/28 01:52:07;;;;;;;10.25;3.78;;;;;;;7.29;63.78;100987.09;5080152;28;20040;-62
2021/03/28 01:54:59;;;;;;;10.68;4.55;;;;;;;7.29;63.50;100982.81;5114984;28;20118;-64
2021/03/28 01:57:36;;;;;;;11.27;4.90;;;;;;;7.28;63.32;100980.16;5096706;28;20035;-63
2021/03/28 02:00:38;;;;;;;12.82;4.15;;;;;;;7.30;63.72;100983.72;5114450;28;20038;-63
2021/03/28 02:03:16;;;;;;;;;;;;;;;7.28;63.43;100988.78;5097568;28;20077;-62
2021/03/28 02:05:50;;;;;;;9.23;3.88;;;;;;;7.29;63.47;100979.34;5079706;28;20286;-62
2021/03/28 02:08:44;;;;;;;9.88;3.65;;;;;;;7.30;63.43;100983.72;5114670;28;20023;-62
2021/03/28 02:11:25;;;;;;;11.48;3.70;;;;;;;7.30;63.68;100969.09;5096482;28;20089;-62
2021/03/28 02:14:06;;;;;;;15.48;3.65;;;;;;;7.30;63.56;100976.84;5114631;28;20040;-63
2021/03/28 02:17:02;;;;;;;16.15;4.15;;;;;;;7.27;63.65;100974.13;5114378;28;20031;-63
2021/03/28 02:19:37;;;;;;;8.02;4.00;;;;;;;7.29;64.00;100985.38;5096344;28;20418;-63
2021/03/28 02:22:16;;;;;;;8.23;3.75;;;;;;;7.31;63.22;100990.63;5114558;28;20490;-63
2021/03/28 02:25:10;;;;;;;7.72;4.28;;;;;;;7.30;63.64;100984.56;5113897;28;20058;-63
2021/03/28 02:27:44;;;;;;;9.35;4.40;;;;;;;7.31;63.45;100983.75;5079865;28;20062;-62
2021/03/28 02:30:24;;;;;;;11.30;4.13;;;;;;;7.32;63.71;100982.06;5096210;28;20028;-62
2021/03/28 02:33:19;;;;;;;7.22;3.60;;;;;;;7.30;64.06;100979.41;5096276;28;20034;-63
2021/03/28 02:36:00;;;;;;;7.28;3.47;;;;;;;7.31;63.69;100980.31;5114585;28;20119;-63
2021/03/28 02:38:50;;;;;;;12.35;3.97;;;;;;;7.30;63.49;100966.53;5114403;28;20043;-63
2021/03/28 02:41:23;;;;;;;9.05;3.65;;;;;;;7.31;63.71;100962.25;5096012;28;20043;-63
2021/03/28 02:44:11;;;;;;;9.65;3.42;;;;;;;7.31;63.64;100964.84;5113866;28;20027;-63
2021/03/28 02:46:42;;;;;;;11.35;3.75;;;;;;;7.32;63.97;100967.47;5114553;28;20035;-63
2021/03/28 02:49:26;;;;;;;8.27;4.00;;;;;;;7.34;63.68;100969.25;5114399;28;20047;-63
2021/03/28 02:52:16;;;;;;;9.55;3.92;;;;;;;7.33;64.06;100976.06;5114159;28;20020;-64
2021/03/28 02:54:50;;;;;;;11.35;3.83;;;;;;;7.32;63.75;100974.31;5113765;28;20040;-63
2021/03/28 02:57:27;;;;;;;;;;;;;;;7.30;63.46;100963.06;5114527;28;20114;-63
2021/03/28 03:00:27;;;;;;;9.20;3.50;;;;;;;7.29;63.91;100972.50;5096075;28;19918;-64
2021/03/28 03:03:01;;;;;;;11.88;3.63;;;;;;;7.28;63.64;100970.72;5114191;28;20078;-63
2021/03/28 03:05:35;;;;;;;;;;;;;;;7.28;63.61;100981.03;5114279;28;20086;-63
2021/03/28 03:08:12;;;;;;;12.65;3.55;;;;;;;7.27;63.94;100971.53;5113960;28;19920;-62
2021/03/28 03:10:38;;;;;;;8.07;3.08;;;;;;;7.28;63.69;100975.00;5114274;28;20063;-62
2021/03/28 03:13:41;;;;;;;8.77;4.05;;;;;;;7.26;63.75;100976.63;5095523;28;20088;-62
2021/03/28 03:16:16;;;;;;;10.73;3.13;;;;;;;7.27;63.75;100974.13;5113840;28;20031;-63
2021/03/28 03:19:06;;;;;;;14.55;3.65;;;;;;;7.26;63.95;100968.91;5113966;28;20506;-63
2021/03/28 03:22:08;;;;;;;8.48;3.83;;;;;;;7.26;63.92;100976.63;5096047;28;20032;-63
2021/03/28 03:25:11;;;;;;;8.05;3.35;;;;;;;7.26;63.85;100977.50;5113261;28;20508;-64
2021/03/28 03:27:51;;;;;;;8.30;3.88;;;;;;;7.26;64.02;100969.78;5095516;28;20494;-62
2021/03/28 03:30:43;;;;;;;12.77;3.72;;;;;;;7.27;64.15;100971.53;5095974;28;20502;-63
2021/03/28 03:33:52;;;;;;;8.75;3.33;;;;;;;7.27;63.72;100968.97;5064635;28;20070;-63
2021/03/28 03:36:39;;;;;;;9.55;3.80;;;;;;;7.24;63.58;100970.53;5050594;28;20039;-63
2021/03/28 03:39:32;;;;;;;9.25;3.30;;;;;;;7.26;64.19;100966.31;5034200;28;20049;-63
2021/03/28 03:42:02;;;;;;;11.48;4.22;;;;;;;7.25;63.60;100960.25;5101568;28;20124;-63
2021/03/28 03:44:36;;;;;;;12.55;3.20;;;;;;;7.25;63.87;100960.25;5113528;28;20165;-64
2021/03/28 03:47:15;;;;;;;;;;;;;;;7.22;63.99;100964.41;5113919;28;20039;-63
2021/03/28 03:50:09;;;;;;;12.02;3.50;;;;;;;7.20;63.69;100954.03;5113441;28;19919;-63
2021/03/28 03:53:04;;;;;;;11.10;3.70;;;;;;;7.20;64.10;100973.78;5098600;28;20056;-63
2021/03/28 03:55:51;;;;;;;12.80;4.43;;;;;;;7.20;63.74;100971.19;5117515;28;20028;-63
2021/03/28 03:58:21;;;;;;;13.20;3.90;;;;;;;7.21;64.13;100958.41;5099109;28;20035;-62
2021/03/28 04:01:24;;;;;;;9.38;3.13;;;;;;;7.19;64.12;100962.59;5116987;28;20047;-63
2021/03/28 04:04:47;;;;;;;7.97;3.38;;;;;;;7.18;64.22;100952.19;5133008;27;20395;-63
2021/03/28 04:07:49;;;;;;;8.85;3.42;;;;;;;7.18;64.19;100953.09;5053768;28;20136;-62
2021/03/28 04:10:34;;;;;;;8.65;4.05;;;;;;;7.21;63.73;100957.50;5054161;28;20136;-64
2021/03/28 04:13:24;;;;;;;9.68;3.28;;;;;;;7.20;63.92;100959.19;5108551;28;20127;-63
2021/03/28 04:16:11;;;;;;;10.90;4.22;;;;;;;7.19;63.93;100959.13;5116920;28;20502;-63
2021/03/28 04:18:56;;;;;;;11.07;5.13;;;;;;;7.21;64.06;100958.41;5098915;28;20142;-62
2021/03/28 04:21:54;;;;;;;12.20;4.38;;;;;;;7.19;63.94;100965.16;5098932;28;20036;-62
2021/03/28 04:24:46;;;;;;;5.47;2.88;;;;;;;7.20;63.81;100961.78;5117514;28;20034;-62
2021/03/28 04:27:11;;;;;;;11.23;3.47;;;;;;;7.22;63.99;100964.41;5116728;28;20040;-63
2021/03/28 04:29:44;;;;;;;7.95;3.63;;;;;;;7.20;63.72;100966.94;5116240;28;20058;-62
2021/03/28 04:32:50;;;;;;;11.98;3.90;;;;;;;7.20;64.15;100961.78;5116493;28;20035;-62
2021/03/28 04:35:38;;;;;;;7.38;3.88;;;;;;;7.20;64.29;100964.34;5116466;28;20028;-63
2021/03/28 04:38:13;;;;;;;12.02;4.13;;;;;;;7.19;64.11;100975.50;5098095;28;20035;-63
2021/03/28 04:41:27;;;;;;;12.45;3.60;;;;;;;7.18;64.35;100975.41;5116360;28;20035;-63
2021/03/28 04:44:14;;;;;;;12.40;3.70;;;;;;;7.19;64.15;100972.91;5027542;28;20045;-62
2021/03/28 04:47:04;;;;;;;8.90;3.72;;;;;;;7.21;64.21;100970.38;5097853;28;20036;-62
2021/03/28 04:49:53;;;;;;;10.18;3.38;;;;;;;7.19;64.02;100980.66;5098405;28;20042;-63
2021/03/28 04:52:51;;;;;;;7.65;3.78;;;;;;;7.19;64.09;100983.22;5116602;28;20027;-63
2021/03/28 04:55:22;;;;;;;11.43;3.05;;;;;;;7.21;64.13;100980.69;5116324;28;20073;-62
2021/03/28 04:58:08;;;;;;;9.57;3.35;;;;;;;7.21;64.31;100978.13;5097643;28;20027;-63
2021/03/28 05:00:52;;;;;;;9.25;3.30;;;;;;;7.20;64.38;100982.41;5098190;28;20063;-63
2021/03/28 05:03:24;;;;;;;10.50;3.50;;;;;;;7.19;64.49;100977.16;5115929;28;20039;-63
2021/03/28 05:06:00;;;;;;;9.25;3.72;;;;;;;7.20;64.14;100981.50;5095262;28;20032;-63
2021/03/28 05:08:37;;;;;;;12.77;3.97;;;;;;;7.20;63.97;100977.25;5096038;28;20036;-63
2021/03/28 05:11:29;;;;;;;11.02;3.42;;;;;;;7.21;64.42;100984.19;5095459;28;20093;-63
2021/03/28 05:14:32;;;;;;;8.40;3.50;;;;;;;7.22;64.42;100985.94;5093959;28;20055;-63
2021/03/28 05:17:00;;;;;;;11.70;3.65;;;;;;;7.24;64.25;100983.41;5094161;28;20487;-62
2021/03/28 05:20:02;;;;;;;13.40;3.63;;;;;;;7.22;64.32;100975.63;5094135;28;20072;-63
2021/03/28 05:22:45;;;;;;;9.50;3.67;;;;;;;7.21;63.93;100976.44;5095248;28;20032;-63
2021/03/28 05:25:48;;;;;;;8.13;3.47;;;;;;;7.19;64.16;100960.00;5094788;28;20123;-62
2021/03/28 05:28:22;;;;;;;7.68;3.53;;;;;;;7.20;64.48;100972.09;5095234;28;20067;-63
2021/03/28 05:31:06;;;;;;;;;;;;;;;7.18;64.16;100973.72;5094263;28;20039;-63
2021/03/28 05:34:09;;;;;;;9.05;3.35;;;;;;;7.18;64.20;100983.13;5095106;28;19912;-63
2021/03/28 05:36:55;;;;;;;10.55;4.13;;;;;;;7.20;64.46;100972.09;5094855;28;20089;-63
2021/03/28 05:39:57;;;;;;;6.88;4.07;;;;;;;7.18;64.28;100984.03;5094461;28;20032;-63
2021/03/28 05:42:44;;;;;;;14.77;3.72;;;;;;;7.20;64.10;100990.16;5095127;28;20032;-63
2021/03/28 05:45:19;;;;;;;11.63;4.07;;;;;;;7.20;64.29;100991.81;5094265;28;20028;-62
2021/03/28 05:48:10;;;;;;;13.43;4.32;;;;;;;7.20;64.62;100987.56;5094994;28;20044;-62
2021/03/28 05:50:48;;;;;;;14.85;3.40;;;;;;;7.21;64.83;100991.00;5093656;28;20540;-63
2021/03/28 05:53:35;;;;;;;11.02;3.50;;;;;;;7.21;64.25;100991.00;5094656;28;20028;-62
2021/03/28 05:56:27;;;;;;;12.68;3.90;;;;;;;7.21;64.22;100996.16;5093423;28;20125;-63
2021/03/28 05:58:58;;;;;;;10.35;3.92;;;;;;;7.23;64.57;101000.59;5095133;28;20521;-63
2021/03/28 06:01:35;;;;;;;13.05;4.05;;;;;;;7.24;64.48;101001.47;5094822;28;20441;-63
2021/03/28 06:04:19;;;;;;;8.60;4.10;;;;;;;7.23;64.62;101008.34;5099501;28;20054;-62
2021/03/28 06:07:06;;;;;;;7.07;3.67;;;;;;;7.22;64.39;101006.56;5115335;28;20044;-63
2021/03/28 06:09:52;;;;;;;11.85;4.60;;;;;;;7.21;64.75;101007.38;5115390;28;20086;-62
2021/03/28 06:12:31;;;;;;;16.75;4.32;;;;;;;7.23;64.35;100998.03;5114565;28;20135;-62
2021/03/28 06:15:08;;;;;;;15.52;4.60;;;;;;;7.23;64.46;101005.75;5095769;28;20051;-62
2021/03/28 06:18:04;;;;;;;12.27;3.85;;;;;;;7.22;64.28;101000.50;5096528;28;20452;-63
2021/03/28 06:20:46;;;;;;;11.45;3.92;;;;;;;7.23;64.44;100997.13;5096043;28;20039;-62
2021/03/28 06:23:23;;;;;;;5.53;3.67;;;;;;;7.24;64.69;100998.88;5114070;28;20028;-63
2021/03/28 06:25:54;;;;;;;10.23;3.70;;;;;;;7.25;64.23;101001.53;5114220;28;20043;-62
2021/03/28 06:28:53;;;;;;;14.75;4.43;;;;;;;7.25;64.58;101005.81;5114338;28;20023;-63
2021/03/28 06:31:19;;;;;;;14.57;4.22;;;;;;;7.24;64.84;101004.91;5095862;28;20490;-63
2021/03/28 06:34:09;;;;;;;8.35;4.05;;;;;;;7.24;64.68;101017.81;5114224;28;20047;-64
2021/03/28 06:36:34;;;;;;;11.57;3.85;;;;;;;7.25;64.96;101017.00;5096509;28;20047;-62
2021/03/28 06:39:14;;;;;;;10.30;4.00;;;;;;;7.26;64.66;101013.59;5114282;28;20035;-63
2021/03/28 06:42:06;;;;;;;10.38;4.47;;;;;;;7.24;64.81;101020.38;5114147;28;20130;-62
2021/03/28 06:44:51;;;;;;;7.85;3.55;;;;;;;7.26;64.92;101018.75;5114131;28;20439;-62
2021/03/28 06:48:12;;;;;;;12.13;4.63;;;;;;;7.25;64.35;101022.16;5114189;28;20050;-63
2021/03/28 06:50:55;;;;;;;15.93;4.38;;;;;;;7.26;64.74;101029.06;5051336;28;20434;-63
2021/03/28 06:53:29;;;;;;;10.88;3.65;;;;;;;7.28;64.68;101022.28;5109588;28;20039;-63
2021/03/28 06:56:30;;;;;;;9.10;3.67;;;;;;;7.28;64.90;101019.72;5113848;28;20067;-62
2021/03/28 06:59:13;;;;;;;17.33;5.82;;;;;;;7.25;64.96;101014.41;5088620;28;20035;-62
2021/03/28 07:01:59;;;;;;;13.40;4.13;;;;;;;7.27;64.66;101023.09;5096140;28;20042;-62
2021/03/28 07:04:46;;;;;;;12.65;4.35;;;;;;;7.27;65.01;101030.84;5113457;28;20486;-63
2021/03/28 07:08:10;;;;;;;14.48;4.35;;;;;;;7.26;64.90;101020.47;5078860;28;20031;-63
2021/03/28 07:11:13;;;;;;;15.05;4.72;;;;;;;7.26;64.95;101016.19;5051089;28;20120;-63
2021/03/28 07:14:02;;;;;;;14.55;5.20;;;;;;;7.29;65.03;101011.16;5113837;28;20392;-62
2021/03/28 07:17:02;;;;;;;11.13;4.80;;;;;;;7.30;65.12;101007.78;5114285;28;20043;-64
2021/03/28 07:19:28;;;;;;;10.35;4.18;;;;;;;7.34;65.33;101005.34;5095216;28;20039;-63
2021/03/28 07:22:04;;;;;;;11.60;4.18;;;;;;;7.37;65.28;101008.06;5113756;28;20425;-62
2021/03/28 07:24:56;;;;;;;10.73;4.07;;;;;;;7.41;65.02;101004.78;5113235;28;20132;-62
2021/03/28 07:27:31;;;;;;;14.88;5.07;;;;;;;7.45;64.52;101010.16;5099544;28;20039;-62
2021/03/28 07:30:20;;;;;;;9.90;3.97;;;;;;;7.47;64.80;101005.06;5082548;28;20027;-63
2021/03/28 07:33:21;;;;;;;12.02;3.70;;;;;;;7.51;64.84;101018.97;5118217;28;20471;-63
2021/03/28 07:36:09;;;;;;;12.10;3.67;;;;;;;7.52;64.54;101018.16;5110497;28;20051;-63
2021/03/28 07:39:12;;;;;;;8.60;3.80;;;;;;;7.54;64.69;101021.69;5099176;28;20046;-62
2021/03/28 07:41:41;;;;;;;10.75;4.22;;;;;;;7.56;65.11;101015.78;5117424;28;20360;-63
2021/03/28 07:44:31;;;;;;;13.65;4.05;;;;;;;7.61;65.01;101021.16;5099880;28;20056;-64
2021/03/28 07:47:15;;;;;;;10.77;3.50;;;;;;;7.61;64.85;101018.59;5098986;28;20448;-63
2021/03/28 07:50:00;;;;;;;;;;;;;;;7.61;64.54;101027.19;5117555;28;20089;-63
2021/03/28 07:53:22;;;;;;;7.78;4.13;;;;;;;7.65;64.59;101024.75;5099428;28;19929;-63
2021/03/28 07:56:14;;;;;;;7.85;3.33;;;;;;;7.66;64.49;101034.25;5051570;28;20044;-62
2021/03/28 07:59:13;;;;;;;14.05;4.35;;;;;;;7.69;64.90;101026.66;5117056;28;20036;-62
2021/03/28 08:01:42;;;;;;;16.15;3.63;;;;;;;7.69;64.84;101019.78;5116958;28;20032;-63
2021/03/28 08:04:13;;;;;;;8.52;3.78;;;;;;;7.71;65.13;101025.00;5117010;28;20487;-62
2021/03/28 08:06:42;;;;;;;9.43;4.05;;;;;;;7.70;65.19;101024.13;5117373;28;20108;-63
2021/03/28 08:09:18;;;;;;;7.22;3.50;;;;;;;7.74;64.82;101025.13;5098786;28;20067;-62
2021/03/28 08:11:54;;;;;;;8.35;3.90;;;;;;;7.75;64.86;101024.31;5099088;28;20088;-63
2021/03/28 08:14:40;;;;;;;10.77;4.03;;;;;;;7.74;64.84;101036.38;5099083;28;20035;-62
2021/03/28 08:17:23;;;;;;;10.55;3.80;;;;;;;7.78;64.80;101050.28;5098866;28;20038;-62
2021/03/28 08:20:26;;;;;;;9.23;3.05;;;;;;;7.78;65.04;101053.72;5116650;28;20047;-62
2021/03/28 08:23:07;;;;;;;13.02;5.05;;;;;;;7.80;64.75;101051.22;5082096;28;20442;-62
2021/03/28 08:26:03;;;;;;;13.55;4.10;;;;;;;7.80;64.77;101058.06;5116587;28;20040;-63
2021/03/28 08:28:46;;;;;;;16.25;6.45;;;;;;;7.81;64.72;101042.66;5098577;28;20040;-63
2021/03/28 08:31:33;;;;;;;11.27;4.20;;;;;;;7.82;64.58;101052.19;5117231;28;20057;-62
2021/03/28 08:34:14;;;;;;;8.70;3.90;;;;;;;7.83;64.77;101043.63;5098802;28;20062;-62
2021/03/28 08:36:57;;;;;;;10.02;3.60;;;;;;;7.85;64.81;101042.00;5116123;28;20063;-63
2021/03/28 08:40:05;;;;;;;19.30;4.13;;;;;;;7.87;65.02;101040.31;5098069;28;20486;-63
2021/03/28 08:42:49;;;;;;;18.45;4.85;;;;;;;7.89;64.96;101033.53;5116025;28;20036;-63
2021/03/28 08:45:51;;;;;;;9.65;3.60;;;;;;;7.95;64.58;101048.41;5116431;28;20043;-63
2021/03/28 08:48:49;;;;;;;10.45;3.00;;;;;;;7.97;64.90;101051.06;5098072;28;20038;-63
2021/03/28 08:51:42;;;;;;;7.32;3.45;;;;;;;8.01;64.62;101047.81;5064594;28;20065;-62
2021/03/28 08:54:12;;;;;;;11.25;3.08;;;;;;;8.03;64.79;101047.03;5116563;28;20035;-63
2021/03/28 08:56:49;;;;;;;10.35;3.45;;;;;;;8.06;64.64;101052.34;5116058;28;20063;-63
2021/03/28 08:59:31;;;;;;;14.52;4.05;;;;;;;8.09;64.91;101049.00;5081345;28;20028;-62
2021/03/28 09:02:16;;;;;;;10.13;3.60;;;;;;;8.12;64.77;101049.13;5098031;28;20555;-63
2021/03/28 09:05:21;;;;;;;9.90;4.00;;;;;;;8.13;64.72;101053.50;5116092;28;20051;-63
2021/03/28 09:08:07;;;;;;;5.50;3.30;;;;;;;8.15;65.00;101046.69;5086753;28;20444;-63
2021/03/28 09:11:13;;;;;;;8.30;3.65;;;;;;;8.16;64.71;101038.13;5097500;28;20044;-62
2021/03/28 09:13:57;;;;;;;9.80;3.78;;;;;;;8.17;64.85;101045.06;5116003;28;20062;-62
2021/03/28 09:16:25;;;;;;;10.68;3.80;;;;;;;8.20;64.93;101041.72;5115875;28;20416;-63
2021/03/28 09:19:11;;;;;;;9.77;3.65;;;;;;;8.22;64.72;101035.78;5080375;28;20177;-63
2021/03/28 09:21:42;;;;;;;9.68;3.63;;;;;;;8.27;64.66;101041.13;5116157;28;20068;-62
2021/03/28 09:24:12;;;;;;;11.05;3.38;;;;;;;8.29;64.96;101034.34;5115636;28;20034;-63
2021/03/28 09:27:13;;;;;;;11.05;3.65;;;;;;;8.36;64.70;101032.88;5115583;28;20039;-62
2021/03/28 09:30:39;;;;;;;14.02;3.50;;;;;;;8.37;64.73;101032.97;5096723;28;20052;-63
2021/03/28 09:33:38;;;;;;;9.82;3.47;;;;;;;8.42;64.76;101035.72;5027998;28;20057;-62
2021/03/28 09:36:31;;;;;;;11.93;3.33;;;;;;;8.44;64.69;101036.66;5115662;28;20036;-62
2021/03/28 09:39:34;;;;;;;11.48;3.40;;;;;;;8.45;64.52;101024.63;5097280;28;20036;-62
2021/03/28 09:42:33;;;;;;;12.38;4.05;;;;;;;8.45;64.67;101033.28;5097044;28;20031;-63
2021/03/28 09:45:26;;;;;;;6.97;3.40;;;;;;;8.47;64.63;101023.88;5115049;28;20035;-63
2021/03/28 09:48:08;;;;;;;13.45;3.95;;;;;;;8.47;64.66;101034.22;5114408;28;20036;-62
2021/03/28 09:50:43;;;;;;;9.50;3.08;;;;;;;8.50;64.86;101036.06;5096762;28;20111;-63
2021/03/28 09:53:20;;;;;;;9.80;3.65;;;;;;;8.55;64.74;101024.22;5097582;28;20412;-62
2021/03/28 09:56:13;;;;;;;13.05;3.80;;;;;;;8.57;64.61;101021.69;5114895;28;20092;-63
2021/03/28 09:59:03;;;;;;;9.77;2.80;;;;;;;8.57;64.66;101024.28;5096324;28;20035;-62
2021/03/28 10:01:40;;;;;;;14.35;2.92;;;;;;;8.57;64.71;101032.88;5115178;28;20036;-62
2021/03/28 10:04:14;;;;;;;14.98;3.50;;;;;;;8.58;64.55;101039.81;5096605;28;20143;-62
2021/03/28 10:06:56;;;;;;;9.45;3.05;;;;;;;8.61;64.62;101047.72;5096548;28;20040;-63
2021/03/28 10:09:41;;;;;;;7.90;3.05;;;;;;;8.62;64.71;101044.31;5096866;28;20131;-62
2021/03/28 10:12:12;;;;;;;11.15;3.00;;;;;;;8.66;64.98;101048.78;5096462;28;20432;-63
2021/03/28 10:15:06;;;;;;;11.88;3.95;;;;;;;8.69;64.67;101042.84;5097147;28;20071;-63
2021/03/28 10:17:54;;;;;;;11.55;3.10;;;;;;;8.71;64.88;101048.09;5114403;28;20122;-63
2021/03/28 10:20:37;;;;;;;8.35;3.00;;;;;;;8.71;64.70;101058.44;5114588;28;20157;-63
2021/03/28 10:23:15;;;;;;;12.40;3.47;;;;;;;8.71;64.56;101051.53;5114733;28;20036;-62
2021/03/28 10:25:59;;;;;;;13.73;2.78;;;;;;;8.72;64.78;101052.44;5114436;28;20072;-63
2021/03/28 10:28:58;;;;;;;19.80;3.72;;;;;;;8.74;64.67;101050.78;5130426;27;20114;-62
2021/03/28 10:31:42;;;;;;;9.20;4.10;;;;;;;8.73;64.53;101052.50;5096499;28;20048;-63
2021/03/28 10:34:32;;;;;;;9.63;4.40;;;;;;;8.74;64.59;101041.34;5114356;28;20043;-63
2021/03/28 10:37:22;;;;;;;9.13;3.05;;;;;;;8.74;64.55;101031.00;5114872;28;20035;-63
2021/03/28 10:40:21;;;;;;;10.45;3.20;;;;;;;8.77;64.44;101038.88;5096190;28;20063;-63
2021/03/28 10:43:12;;;;;;;8.80;2.60;;;;;;;8.77;64.52;101033.72;5114694;28;20032;-62
2021/03/28 10:46:15;;;;;;;10.18;2.90;;;;;;;8.77;64.67;101033.72;5114283;28;20165;-63
2021/03/28 10:48:59;;;;;;;7.53;2.55;;;;;;;8.78;64.66;101050.09;5114090;28;20499;-63
2021/03/28 10:52:01;;;;;;;7.40;3.42;;;;;;;8.78;64.68;101044.91;5114387;28;20035;-62
2021/03/28 10:54:50;;;;;;;11.75;2.85;;;;;;;8.78;64.74;101047.50;5113602;28;20039;-63
2021/03/28 10:58:01;;;;;;;10.32;3.03;;;;;;;8.80;64.52;101044.13;5095773;28;20035;-63
2021/03/28 11:01:07;;;;;;;8.95;2.90;;;;;;;8.81;64.60;101042.44;5113687;28;20039;-63
2021/03/28 11:03:51;;;;;;;10.55;2.53;;;;;;;8.83;64.58;101035.66;5113611;28;20126;-63
2021/03/28 11:06:46;;;;;;;6.95;2.70;;;;;;;8.82;64.56;101024.41;5114148;28;20139;-64
2021/03/28 11:09:17;;;;;;;10.38;3.00;;;;;;;8.86;64.62;101040.03;5095940;28;20445;-63
2021/03/28 11:11:45;;;;;;;9.95;3.00;;;;;;;8.87;64.88;101029.78;5113326;28;20046;-62
2021/03/28 11:14:24;;;;;;;5.85;2.97;;;;;;;8.87;64.77;101034.06;5096163;28;20035;-62
2021/03/28 11:17:11;;;;;;;6.20;2.65;;;;;;;8.88;64.77;101038.41;5113943;28;20444;-62
2021/03/28 11:19:48;;;;;;;8.20;2.90;;;;;;;8.87;64.60;101028.88;5113482;28;20054;-62
2021/03/28 11:23:05;;;;;;;7.07;2.75;;;;;;;8.88;64.68;101035.81;5095405;28;20084;-62
2021/03/28 11:26:06;;;;;;;7.30;2.70;;;;;;;8.89;64.64;101040.16;5087741;28;20079;-63
2021/03/28 11:28:46;;;;;;;8.25;2.70;;;;;;;8.88;64.53;101049.59;5108786;28;20108;-62
2021/03/28 11:31:27;;;;;;;11.73;3.03;;;;;;;8.89;64.63;101043.63;5114022;28;20086;-62
2021/03/28 11:34:19;;;;;;;10.68;3.67;;;;;;;8.92;64.89;101038.56;5095439;28;20119;-63
2021/03/28 11:36:55;;;;;;;8.30;2.78;;;;;;;8.94;64.50;101043.81;5113691;28;20039;-63
2021/03/28 11:39:31;;;;;;;7.57;2.40;;;;;;;8.94;64.82;101043.81;5095464;28;20462;-63
2021/03/28 11:42:01;;;;;;;9.38;2.85;;;;;;;8.96;64.57;101044.72;5113342;28;20035;-63
2021/03/28 11:44:34;;;;;;;7.82;3.17;;;;;;;8.99;64.52;101050.03;5113135;28;20042;-63
2021/03/28 11:47:25;;;;;;;7.43;2.97;;;;;;;9.01;64.56;101055.28;5095518;28;20038;-63
2021/03/28 11:50:02;;;;;;;5.20;2.50;;;;;;;9.01;64.86;101047.53;5113803;28;20114;-62
2021/03/28 11:52:53;;;;;;;6.43;2.63;;;;;;;9.04;64.76;101057.97;5095549;28;20039;-63
2021/03/28 11:55:42;;;;;;;20.77;3.95;;;;;;;9.04;64.95;101056.28;5095328;28;20509;-62
2021/03/28 11:58:16;;;;;;;10.00;3.10;;;;;;;9.03;64.72;101054.50;5112962;28;20047;-62
2021/03/28 12:00:55;;;;;;;15.32;3.40;;;;;;;9.06;64.45;101053.72;5113571;28;20028;-62
2021/03/28 12:03:28;;;;;;;10.07;3.20;;;;;;;9.06;64.88;101057.22;5078284;28;20067;-63
2021/03/28 12:06:07;;;;;;;8.38;2.88;;;;;;;9.07;64.38;101060.66;5113170;28;20562;-62
2021/03/28 12:09:00;;;;;;;6.70;2.65;;;;;;;9.05;64.70;101052.88;5094890;28;20035;-63
2021/03/28 12:11:39;;;;;;;12.13;3.58;;;;;;;9.05;64.50;101058.03;5106498;28;20044;-62
2021/03/28 12:14:13;;;;;;;9.48;3.50;;;;;;;9.06;64.64;101048.56;5116769;28;20039;-64
2021/03/28 12:16:57;;;;;;;;;;;;;;;9.04;64.39;101035.59;5117275;28;20498;-62
2021/03/28 12:19:29;;;;;;;6.43;3.47;;;;;;;9.06;64.25;101052.03;5098385;28;20294;-62
2021/03/28 12:22:04;;;;;;;5.10;2.70;;;;;;;9.06;64.58;101030.47;5098943;28;20130;-62
2021/03/28 12:24:39;;;;;;;7.10;2.97;;;;;;;9.06;64.40;101039.13;5098048;28;20126;-63
2021/03/28 12:27:22;;;;;;;8.68;3.40;;;;;;;9.07;64.90;101038.28;5117068;28;20063;-63
2021/03/28 12:29:58;;;;;;;9.38;2.80;;;;;;;9.07;64.47;101030.53;5099352;28;20027;-63
2021/03/28 12:33:02;;;;;;;13.52;2.92;;;;;;;9.08;64.51;101032.31;5081674;28;20387;-62
2021/03/28 12:35:33;;;;;;;5.95;2.53;;;;;;;9.12;64.57;101034.16;5077448;28;20085;-63
2021/03/28 12:38:28;;;;;;;5.07;2.58;;;;;;;9.12;64.43;101026.41;5116704;28;20035;-63
2021/03/28 12:41:11;;;;;;;11.30;2.75;;;;;;;9.13;64.56;101032.47;5116735;28;20035;-63
2021/03/28 12:43:48;;;;;;;8.02;3.40;;;;;;;9.13;64.63;101017.81;5116538;28;20063;-63
2021/03/28 12:46:26;;;;;;;10.75;2.95;;;;;;;9.13;64.60;101019.53;5098669;28;20035;-62
2021/03/28 12:49:11;;;;;;;7.75;3.10;;;;;;;9.14;64.39;101022.16;5116341;28;20116;-63
2021/03/28 12:51:48;;;;;;;8.65;3.13;;;;;;;9.13;64.51;101014.38;5098139;28;20034;-62
2021/03/28 12:54:21;;;;;;;8.13;3.17;;;;;;;9.14;64.34;101013.53;5097594;28;20054;-63
2021/03/28 12:56:56;;;;;;;10.48;3.65;;;;;;;9.14;64.70;101024.75;5097918;28;20114;-63